Time;durP1;ratioP1;P1;durP2;ratioP2;P2;SDS_P1;SDS_P2;PMS_P1;PMS_P2;Temp;Humidity;BMP_temperature;BMP_pressure;BME280_temperature;BME280_humidity;BME280_pressure;Samples;Min_cycle;Max_cycle;Signal;HPM_P1;HPM_P2
2022/08/20 00:01:52;;;;;;;11.00;8.57;;;20.30;99.90;;;;;;5023449;28;20040;-78
2022/08/20 00:04:18;;;;;;;9.60;8.32;;;20.30;99.90;;;;;;5029564;28;20029;-78
2022/08/20 00:06:44;;;;;;;10.10;8.35;;;20.30;99.90;;;;;;5044689;28;20055;-77
2022/08/20 00:09:11;;;;;;;9.90;8.32;;;20.30;99.90;;;;;;5045894;28;20033;-78
2022/08/20 00:11:36;;;;;;;11.60;8.68;;;20.30;99.90;;;;;;5029223;28;20388;-78
2022/08/20 00:14:05;;;;;;;8.95;7.68;;;20.30;99.90;;;;;;5066925;28;20028;-77
2022/08/20 00:16:35;;;;;;;8.77;7.47;;;20.30;99.90;;;;;;5071333;28;20029;-77
2022/08/20 00:19:04;;;;;;;8.18;6.60;;;20.30;99.90;;;;;;5066550;28;20029;-78
2022/08/20 00:21:30;;;;;;;7.30;6.60;;;20.30;99.90;;;;;;5047262;28;20508;-78
2022/08/20 00:23:55;;;;;;;7.88;7.07;;;20.30;99.90;;;;;;5066207;28;20036;-78
2022/08/20 00:26:23;;;;;;;9.68;6.72;;;20.30;99.90;;;;;;5046274;28;20111;-79
2022/08/20 00:28:49;;;;;;;7.65;5.97;;;20.30;99.90;;;;;;5031359;28;20499;-78
2022/08/20 00:31:18;;;;;;;7.20;6.15;;;20.30;99.90;;;;;;5029472;28;20029;-78
2022/08/20 00:33:44;;;;;;;6.82;6.13;;;20.30;99.90;;;;;;5028740;28;20100;-77
2022/08/20 00:36:11;;;;;;;7.60;6.13;;;20.30;99.90;;;;;;5043248;28;20037;-78
2022/08/20 00:38:42;;;;;;;6.63;5.95;;;20.30;99.90;;;;;;5063744;28;20056;-78
2022/08/20 00:41:12;;;;;;;6.32;5.65;;;20.30;99.90;;;;;;5044825;28;20033;-77
2022/08/20 00:43:46;;;;;;;8.02;4.80;;;20.30;99.90;;;;;;5025411;28;20438;-78
2022/08/20 00:46:24;;;;;;;6.03;4.45;;;20.30;99.90;;;;;;5026418;28;20078;-78
2022/08/20 00:48:53;;;;;;;5.60;4.13;;;20.30;99.90;;;;;;5062459;28;20052;-79
2022/08/20 00:51:41;;;;;;;3.90;3.53;;;20.30;99.90;;;;;;5046743;28;20044;-79
2022/08/20 00:54:14;;;;;;;4.35;3.28;;;20.30;99.90;;;;;;5044734;28;20033;-78
2022/08/20 00:56:44;;;;;;;4.40;3.22;;;20.30;99.90;;;;;;5044054;28;20497;-77
2022/08/20 00:59:17;;;;;;;5.15;4.32;;;20.30;99.90;;;;;;5061153;28;20067;-79
2022/08/20 01:01:44;;;;;;;4.60;3.55;;;20.30;99.90;;;;;;5023111;28;20227;-78
2022/08/20 01:04:10;;;;;;;5.07;3.40;;;20.20;99.90;;;;;;5062363;28;20021;-78
2022/08/20 01:06:40;;;;;;;6.55;3.45;;;20.30;99.90;;;;;;5043778;28;20044;-78
2022/08/20 01:09:06;;;;;;;3.90;3.10;;;20.30;99.90;;;;;;5043272;28;20021;-79
2022/08/20 01:11:34;;;;;;;3.85;3.13;;;20.30;99.90;;;;;;5045313;28;20415;-78
2022/08/20 01:16:53;;;;;;;4.40;3.28;;;20.20;99.90;;;;;;5063868;28;20107;-79
2022/08/20 01:19:29;;;;;;;4.30;3.67;;;20.20;99.90;;;;;;5047543;28;20053;-79
2022/08/20 01:21:56;;;;;;;4.70;3.00;;;20.10;99.90;;;;;;5046847;28;20033;-79
2022/08/20 01:24:39;;;;;;;4.15;3.22;;;20.10;99.90;;;;;;5059928;28;20036;-78
2022/08/20 01:27:06;;;;;;;4.15;3.40;;;20.10;99.90;;;;;;5041643;28;20081;-78
2022/08/20 01:29:38;;;;;;;5.65;3.45;;;20.10;99.90;;;;;;5043824;28;20025;-78
2022/08/20 01:32:05;;;;;;;5.03;3.85;;;20.10;99.90;;;;;;5040726;28;20028;-80
2022/08/20 01:34:32;;;;;;;5.60;3.53;;;20.00;99.90;;;;;;5041217;28;20548;-78
2022/08/20 01:36:58;;;;;;;4.53;3.85;;;20.00;99.90;;;;;;5057897;28;20029;-78
2022/08/20 01:39:30;;;;;;;6.97;3.92;;;20.00;99.90;;;;;;5059407;28;20037;-77
2022/08/20 01:42:18;;;;;;;6.70;3.55;;;20.00;99.90;;;;;;5023941;28;20040;-78
2022/08/20 01:44:45;;;;;;;6.05;3.60;;;20.00;99.90;;;;;;5059292;28;20078;-78
2022/08/20 01:47:30;;;;;;;4.82;3.72;;;20.00;99.90;;;;;;5026201;28;20044;-78
2022/08/20 01:50:21;;;;;;;6.65;4.03;;;20.10;99.90;;;;;;5031518;28;20025;-78
2022/08/20 01:53:03;;;;;;;4.47;3.58;;;20.10;99.90;;;;;;5029597;28;20033;-77
2022/08/20 01:55:30;;;;;;;5.35;3.50;;;20.10;99.90;;;;;;5031759;28;20041;-77
2022/08/20 01:57:56;;;;;;;5.30;3.38;;;20.10;99.90;;;;;;5015896;28;20033;-77
2022/08/20 02:00:23;;;;;;;6.03;3.60;;;20.10;99.90;;;;;;5032847;28;20115;-77
2022/08/20 02:02:49;;;;;;;3.35;2.90;;;20.10;99.90;;;;;;5055939;28;20040;-77
2022/08/20 02:05:16;;;;;;;5.38;3.42;;;20.10;99.90;;;;;;5054974;28;20031;-77
2022/08/20 02:07:48;;;;;;;3.38;3.08;;;20.10;99.90;;;;;;5045150;28;20021;-78
2022/08/20 02:10:16;;;;;;;5.35;3.42;;;20.10;99.90;;;;;;5031457;28;20036;-78
2022/08/20 02:12:42;;;;;;;4.95;3.60;;;20.00;99.90;;;;;;5037696;28;20031;-77
2022/08/20 02:15:10;;;;;;;3.78;3.33;;;20.00;99.90;;;;;;5035428;28;20107;-78
2022/08/20 02:17:36;;;;;;;4.25;3.28;;;20.00;99.90;;;;;;5035973;28;20033;-77
2022/08/20 02:20:07;;;;;;;3.97;3.58;;;20.00;99.90;;;;;;5030064;28;20451;-77
2022/08/20 02:22:43;;;;;;;4.68;3.20;;;20.00;99.90;;;;;;5032095;28;20063;-77
2022/08/20 02:25:13;;;;;;;3.97;3.33;;;20.00;99.90;;;;;;5029423;28;20233;-79
2022/08/20 02:27:41;;;;;;;3.80;3.03;;;20.00;99.90;;;;;;5031705;28;20067;-77
2022/08/20 02:30:11;;;;;;;4.90;3.00;;;20.00;99.90;;;;;;5029474;28;20031;-77
2022/08/20 02:32:38;;;;;;;3.40;3.10;;;20.00;99.90;;;;;;5013717;28;20021;-77
2022/08/20 02:35:07;;;;;;;4.32;3.40;;;19.90;99.90;;;;;;5047920;28;20159;-77
2022/08/20 02:37:34;;;;;;;4.70;3.42;;;19.90;99.90;;;;;;5030374;28;20028;-77
2022/08/20 02:40:00;;;;;;;5.07;3.45;;;19.90;99.90;;;;;;5031854;28;20832;-77
2022/08/20 02:42:26;;;;;;;4.57;3.00;;;19.90;99.90;;;;;;5012959;28;20029;-78
2022/08/20 02:44:53;;;;;;;5.55;3.83;;;19.90;99.90;;;;;;5030719;28;20112;-78
2022/08/20 02:47:19;;;;;;;5.30;4.00;;;19.90;99.90;;;;;;5014833;28;20029;-78
2022/08/20 02:49:44;;;;;;;3.97;3.35;;;19.90;99.90;;;;;;5015907;28;20021;-78
2022/08/20 02:52:10;;;;;;;5.78;4.18;;;19.90;99.90;;;;;;5016358;28;20093;-79
2022/08/20 02:54:36;;;;;;;6.15;4.40;;;19.90;99.90;;;;;;5040266;28;20081;-78
2022/08/20 02:57:03;;;;;;;5.88;4.72;;;19.90;99.90;;;;;;5056743;28;21551;-77
2022/08/20 02:59:29;;;;;;;5.95;4.78;;;19.90;99.90;;;;;;5027240;28;20035;-78
2022/08/20 03:01:55;;;;;;;9.57;5.57;;;19.90;99.90;;;;;;5058191;28;20033;-78
2022/08/20 03:04:20;;;;;;;9.77;6.30;;;19.90;99.90;;;;;;5059872;28;20143;-78
2022/08/20 03:06:46;;;;;;;9.80;5.85;;;19.90;99.90;;;;;;5058711;28;20030;-78
2022/08/20 03:09:12;;;;;;;10.63;7.68;;;19.90;99.90;;;;;;5046525;28;20033;-78
2022/08/20 03:11:38;;;;;;;10.90;8.13;;;19.90;99.90;;;;;;5066490;28;20029;-77
2022/08/20 03:14:05;;;;;;;10.35;7.70;;;19.80;99.90;;;;;;5040137;28;20033;-77
2022/08/20 03:16:31;;;;;;;10.90;7.80;;;19.80;99.90;;;;;;5035623;28;20572;-78
2022/08/20 03:18:57;;;;;;;12.32;8.45;;;19.80;99.90;;;;;;5045658;28;20044;-78
2022/08/20 03:21:23;;;;;;;12.35;8.35;;;19.80;99.90;;;;;;5022160;28;20024;-77
2022/08/20 03:23:48;;;;;;;9.55;7.80;;;19.80;99.90;;;;;;5021594;28;20032;-78
2022/08/20 03:26:15;;;;;;;9.73;7.70;;;19.80;99.90;;;;;;5024698;28;20493;-77
2022/08/20 03:28:41;;;;;;;10.60;7.40;;;19.90;99.90;;;;;;5022081;28;20053;-79
2022/08/20 03:31:07;;;;;;;10.95;7.97;;;19.90;99.90;;;;;;5043895;28;20044;-78
2022/08/20 03:33:33;;;;;;;11.05;8.10;;;19.90;99.90;;;;;;5026689;28;20073;-78
2022/08/20 03:35:59;;;;;;;10.93;7.97;;;19.90;99.90;;;;;;5037958;28;20033;-77
2022/08/20 03:38:25;;;;;;;14.07;9.02;;;19.90;99.90;;;;;;5057161;28;20043;-78
2022/08/20 03:40:51;;;;;;;11.75;9.32;;;19.90;99.90;;;;;;5060629;28;20033;-77
2022/08/20 03:43:17;;;;;;;11.20;7.68;;;19.90;99.90;;;;;;5039272;28;20041;-78
2022/08/20 03:45:44;;;;;;;11.73;8.55;;;19.90;99.90;;;;;;5060432;28;20025;-78
2022/08/20 03:48:16;;;;;;;15.68;9.60;;;19.90;99.90;;;;;;5062879;28;20029;-78
2022/08/20 03:50:43;;;;;;;15.32;9.07;;;19.90;99.90;;;;;;5062773;28;20049;-77
2022/08/20 03:53:11;;;;;;;11.00;8.88;;;19.80;99.90;;;;;;5047185;28;20029;-80
2022/08/20 03:55:38;;;;;;;12.65;9.73;;;19.90;99.90;;;;;;5044933;28;20302;-78
2022/08/20 03:58:07;;;;;;;10.27;8.50;;;19.90;99.90;;;;;;5041452;28;20041;-78
2022/08/20 04:00:40;;;;;;;12.30;8.00;;;19.90;99.90;;;;;;5061800;28;20037;-78
2022/08/20 04:03:07;;;;;;;11.18;8.25;;;19.90;99.90;;;;;;5038641;28;20017;-77
2022/08/20 04:05:35;;;;;;;9.68;7.13;;;19.90;99.90;;;;;;5030519;28;20024;-77
2022/08/20 04:08:02;;;;;;;12.07;7.75;;;19.90;99.90;;;;;;5055026;28;20435;-78
2022/08/20 04:10:28;;;;;;;10.52;7.15;;;19.90;99.90;;;;;;5047206;28;20088;-78
2022/08/20 04:12:54;;;;;;;11.82;8.15;;;19.80;99.90;;;;;;5043237;28;20080;-78
2022/08/20 04:15:21;;;;;;;9.90;8.25;;;19.90;99.90;;;;;;5025347;28;20029;-77
2022/08/20 04:17:49;;;;;;;9.93;7.35;;;19.90;99.90;;;;;;5041963;28;20033;-77
2022/08/20 04:20:21;;;;;;;11.25;8.15;;;19.90;99.90;;;;;;5031411;28;20052;-77
2022/08/20 04:22:47;;;;;;;15.75;8.82;;;19.90;99.90;;;;;;5032737;28;20117;-78
2022/08/20 04:25:13;;;;;;;11.23;8.52;;;19.90;99.90;;;;;;5031909;28;20033;-78
2022/08/20 04:27:39;;;;;;;11.13;8.23;;;19.90;99.90;;;;;;5051803;28;20400;-77
2022/08/20 04:30:09;;;;;;;11.23;9.10;;;19.80;99.90;;;;;;5025473;28;20041;-78
2022/08/20 04:32:37;;;;;;;13.57;8.50;;;19.80;99.90;;;;;;5044318;28;20039;-77
2022/08/20 04:35:06;;;;;;;10.10;7.88;;;19.80;99.90;;;;;;5050314;28;20836;-77
2022/08/20 04:37:32;;;;;;;10.80;8.32;;;19.80;99.90;;;;;;5050622;28;20444;-77
2022/08/20 04:42:51;;;;;;;10.32;7.82;;;19.80;99.90;;;;;;5055562;28;20017;-77
2022/08/20 04:45:17;;;;;;;10.40;7.60;;;19.90;99.90;;;;;;5052341;28;20033;-77
2022/08/20 04:47:43;;;;;;;12.85;8.90;;;19.90;99.90;;;;;;5031792;28;20051;-77
2022/08/20 04:50:11;;;;;;;12.95;9.23;;;19.90;99.90;;;;;;5055704;28;20024;-77
2022/08/20 04:52:37;;;;;;;14.27;9.80;;;19.90;99.90;;;;;;5025528;28;20021;-77
2022/08/20 04:55:04;;;;;;;13.35;9.70;;;19.90;99.90;;;;;;5019153;28;20017;-77
2022/08/20 04:57:30;;;;;;;14.88;9.48;;;19.90;99.90;;;;;;5042879;28;20101;-78
2022/08/20 04:59:56;;;;;;;14.57;10.48;;;19.90;99.90;;;;;;5061125;28;20036;-77
2022/08/20 05:02:22;;;;;;;12.70;9.85;;;19.90;99.90;;;;;;5026468;28;20411;-78
2022/08/20 05:04:48;;;;;;;15.18;11.32;;;19.90;99.90;;;;;;5037297;28;20028;-78
2022/08/20 05:07:17;;;;;;;13.05;8.30;;;19.90;99.90;;;;;;5024479;28;20112;-77
2022/08/20 05:09:43;;;;;;;13.10;8.73;;;20.00;99.90;;;;;;5020492;28;20052;-78
2022/08/20 05:12:09;;;;;;;13.18;8.68;;;20.10;99.90;;;;;;5051887;28;20029;-78
2022/08/20 05:14:35;;;;;;;13.65;8.73;;;20.30;99.90;;;;;;5034878;28;20049;-78
2022/08/20 05:17:05;;;;;;;15.32;9.68;;;20.40;99.90;;;;;;5017125;28;20108;-77
2022/08/20 05:19:33;;;;;;;14.27;9.68;;;20.40;99.90;;;;;;5033602;28;20131;-77
2022/08/20 05:22:00;;;;;;;12.90;9.30;;;20.30;99.90;;;;;;5036375;28;20013;-78
2022/08/20 05:24:26;;;;;;;12.32;9.35;;;20.30;99.90;;;;;;5044046;28;20025;-78
2022/08/20 05:26:54;;;;;;;12.93;9.32;;;20.20;99.90;;;;;;5060875;28;20024;-79
2022/08/20 05:29:22;;;;;;;13.93;10.27;;;20.20;99.90;;;;;;5042813;28;20044;-79
2022/08/20 05:31:48;;;;;;;15.50;10.73;;;20.20;99.90;;;;;;5038043;28;20104;-78
2022/08/20 05:34:14;;;;;;;14.25;10.32;;;20.10;99.90;;;;;;5070031;28;20025;-78
2022/08/20 05:36:46;;;;;;;15.57;10.52;;;20.20;99.90;;;;;;5042840;28;20029;-78
2022/08/20 05:39:12;;;;;;;13.48;10.60;;;20.20;99.90;;;;;;5044157;28;20017;-79
2022/08/20 05:41:38;;;;;;;17.85;11.05;;;20.20;99.90;;;;;;5039849;28;20025;-78
2022/08/20 05:44:09;;;;;;;15.27;10.52;;;20.20;99.90;;;;;;5033239;28;20032;-77
2022/08/20 05:46:39;;;;;;;13.60;9.57;;;20.20;99.90;;;;;;5033150;28;20408;-77
2022/08/20 05:49:09;;;;;;;11.67;9.33;;;20.30;99.90;;;;;;5017168;28;20071;-78
2022/08/20 05:51:36;;;;;;;12.30;9.63;;;20.30;99.90;;;;;;5055198;28;20055;-78
2022/08/20 05:54:03;;;;;;;12.95;10.05;;;20.30;99.90;;;;;;5058657;28;20029;-78
2022/08/20 05:56:30;;;;;;;11.82;9.02;;;20.40;99.90;;;;;;5054285;28;20043;-78
2022/08/20 05:58:59;;;;;;;15.77;10.23;;;20.40;99.90;;;;;;5035346;28;20057;-78
2022/08/20 06:01:25;;;;;;;11.48;9.18;;;20.30;99.90;;;;;;5070200;28;20009;-77
2022/08/20 06:06:35;;;;;;;13.63;7.82;;;20.30;99.90;;;;;;5036974;28;20079;-77
2022/08/20 06:09:01;;;;;;;15.60;8.23;;;20.40;99.90;;;;;;5031804;28;20028;-79
2022/08/20 06:11:27;;;;;;;14.40;9.35;;;20.60;99.90;;;;;;5016117;28;20033;-77
2022/08/20 06:13:53;;;;;;;13.70;9.70;;;20.60;99.90;;;;;;5036043;28;20040;-78
2022/08/20 06:16:19;;;;;;;15.30;10.40;;;20.50;99.90;;;;;;5040208;28;20033;-77
2022/08/20 06:18:44;;;;;;;13.65;9.45;;;20.50;99.90;;;;;;5018125;28;20100;-77
2022/08/20 06:21:10;;;;;;;11.10;8.75;;;20.40;99.90;;;;;;5035316;28;20029;-78
2022/08/20 06:23:36;;;;;;;12.48;8.45;;;20.50;99.90;;;;;;5031190;28;20099;-80
2022/08/20 06:26:02;;;;;;;13.60;9.77;;;20.50;99.90;;;;;;5026394;28;20033;-77
2022/08/20 06:28:27;;;;;;;14.40;9.95;;;20.50;99.90;;;;;;5031100;28;20103;-77
2022/08/20 06:30:53;;;;;;;12.35;10.27;;;20.50;99.90;;;;;;5028634;28;20036;-77
2022/08/20 06:33:19;;;;;;;12.45;9.05;;;20.40;99.90;;;;;;5028399;28;20118;-78
2022/08/20 06:35:44;;;;;;;12.25;9.40;;;20.40;99.90;;;;;;5044606;28;20036;-78
2022/08/20 06:38:11;;;;;;;10.77;8.75;;;20.40;99.90;;;;;;5026995;28;20032;-78
2022/08/20 06:40:37;;;;;;;13.50;8.73;;;20.40;99.90;;;;;;5058322;28;20036;-79
2022/08/20 06:43:03;;;;;;;12.45;9.07;;;20.40;99.90;;;;;;5043101;28;20041;-79
2022/08/20 06:45:31;;;;;;;11.45;7.88;;;20.40;99.90;;;;;;5047750;28;20063;-78
2022/08/20 06:48:00;;;;;;;13.05;10.07;;;20.50;99.90;;;;;;5065511;28;20071;-78
2022/08/20 06:50:38;;;;;;;13.43;9.40;;;20.50;99.90;;;;;;5042608;28;20021;-79
2022/08/20 06:53:15;;;;;;;11.40;8.45;;;20.60;99.90;;;;;;5048093;28;20092;-77
2022/08/20 06:55:44;;;;;;;12.88;7.82;;;20.60;99.90;;;;;;5029637;28;20032;-77
2022/08/20 06:58:11;;;;;;;11.00;7.20;;;20.80;99.90;;;;;;5025236;28;20025;-79
2022/08/20 07:00:41;;;;;;;10.95;8.20;;;20.90;99.90;;;;;;5029927;28;20021;-79
2022/08/20 07:03:07;;;;;;;11.02;7.50;;;20.90;99.90;;;;;;5026751;28;20682;-78
2022/08/20 07:05:35;;;;;;;11.00;7.82;;;21.00;99.90;;;;;;5032976;28;20025;-78
2022/08/20 07:08:02;;;;;;;13.27;7.28;;;21.10;99.90;;;;;;5043281;28;20036;-78
2022/08/20 07:10:29;;;;;;;10.45;6.95;;;21.10;99.90;;;;;;5047922;28;20152;-79
2022/08/20 07:12:55;;;;;;;11.18;7.03;;;21.10;99.90;;;;;;5048698;28;20093;-79
2022/08/20 07:15:24;;;;;;;10.40;6.88;;;21.20;99.90;;;;;;5046663;28;20037;-77
2022/08/20 07:17:59;;;;;;;7.22;6.20;;;21.20;99.90;;;;;;5047672;28;20032;-78
2022/08/20 07:20:26;;;;;;;9.75;6.45;;;21.30;99.90;;;;;;5044113;28;20040;-78
2022/08/20 07:22:52;;;;;;;9.25;6.70;;;21.30;99.90;;;;;;5066602;28;20023;-77
2022/08/20 07:25:19;;;;;;;9.63;6.40;;;21.40;99.90;;;;;;5031684;28;20048;-78
2022/08/20 07:27:46;;;;;;;7.38;5.47;;;21.40;99.90;;;;;;5062548;28;20081;-77
2022/08/20 07:33:05;;;;;;;10.95;6.03;;;21.40;99.90;;;;;;5042934;28;20051;-78
2022/08/20 07:35:31;;;;;;;8.38;6.07;;;21.50;99.90;;;;;;5024078;28;20061;-80
2022/08/20 07:37:57;;;;;;;11.40;4.82;;;21.50;99.90;;;;;;5046348;28;20033;-79
2022/08/20 07:40:29;;;;;;;9.43;4.93;;;21.60;99.90;;;;;;5042229;28;20063;-77
2022/08/20 07:43:02;;;;;;;7.85;5.25;;;21.60;99.90;;;;;;5049528;28;20036;-78
2022/08/20 07:45:29;;;;;;;12.32;4.70;;;21.70;99.90;;;;;;5007298;28;20025;-78
2022/08/20 07:48:06;;;;;;;6.00;4.18;;;21.60;99.90;;;;;;5014993;28;20107;-78
2022/08/20 07:50:32;;;;;;;7.60;4.55;;;21.50;99.90;;;;;;5048459;28;20772;-76
2022/08/20 07:53:00;;;;;;;9.98;5.30;;;21.50;99.90;;;;;;5034865;28;20036;-79
2022/08/20 07:55:26;;;;;;;5.50;4.18;;;21.40;99.90;;;;;;5036949;28;20033;-76
2022/08/20 07:57:52;;;;;;;7.65;4.22;;;21.40;99.90;;;;;;5021486;28;20029;-79
2022/08/20 08:00:20;;;;;;;10.25;5.10;;;21.40;99.90;;;;;;5047714;28;20404;-74
2022/08/20 08:02:46;;;;;;;7.30;4.82;;;21.50;99.90;;;;;;5049108;28;20040;-73
2022/08/20 08:05:12;;;;;;;6.53;4.45;;;21.50;99.90;;;;;;5048484;28;20025;-74
2022/08/20 08:07:39;;;;;;;6.68;4.30;;;21.60;99.90;;;;;;5054819;28;20031;-77
2022/08/20 08:10:08;;;;;;;5.05;3.95;;;21.80;99.90;;;;;;5023627;28;20044;-79
2022/08/20 08:12:38;;;;;;;5.63;3.63;;;21.90;99.90;;;;;;5032898;28;20128;-81
2022/08/20 08:15:08;;;;;;;9.32;4.00;;;22.10;99.90;;;;;;5021894;28;20028;-80
2022/08/20 08:17:35;;;;;;;5.72;3.30;;;22.30;99.90;;;;;;5052471;28;20033;-84
2022/08/20 08:20:02;;;;;;;6.03;4.10;;;22.30;99.90;;;;;;5033471;28;20041;-83
2022/08/20 08:22:30;;;;;;;6.75;3.80;;;22.30;99.90;;;;;;5028888;28;20047;-80
2022/08/20 08:25:00;;;;;;;8.55;3.40;;;22.30;99.90;;;;;;5019890;28;20029;-81
2022/08/20 08:27:31;;;;;;;5.57;3.50;;;22.30;99.90;;;;;;5018595;28;20035;-80
2022/08/20 08:29:58;;;;;;;6.53;3.30;;;22.30;99.90;;;;;;5031617;28;20100;-79
2022/08/20 08:32:25;;;;;;;5.90;3.10;;;22.30;99.90;;;;;;5016530;28;20060;-81
2022/08/20 08:34:50;;;;;;;7.38;2.80;;;22.30;99.90;;;;;;5037469;28;20059;-80
2022/08/20 08:37:16;;;;;;;4.82;2.55;;;22.30;99.90;;;;;;5021220;28;20037;-85
2022/08/20 08:39:42;;;;;;;4.95;2.38;;;22.20;99.90;;;;;;5042452;28;20063;-82
2022/08/20 08:42:36;;;;;;;4.13;2.40;;;22.20;99.90;;;;;;5043778;28;20047;-85
2022/08/20 08:45:05;;;;;;;4.32;2.30;;;22.30;99.90;;;;;;5038397;28;20124;-82
2022/08/20 08:47:36;;;;;;;6.75;2.40;;;22.30;99.90;;;;;;5030532;28;20025;-85
2022/08/20 08:50:08;;;;;;;6.18;2.38;;;22.30;99.90;;;;;;5038396;28;20371;-82
2022/08/20 08:52:41;;;;;;;6.35;2.55;;;22.30;99.90;;;;;;5027413;28;20079;-83
2022/08/20 08:55:15;;;;;;;4.45;2.40;;;22.40;99.90;;;;;;5021099;28;20100;-83
2022/08/20 08:57:40;;;;;;;3.45;2.15;;;22.40;99.90;;;;;;5026513;28;20035;-81
2022/08/20 09:00:15;;;;;;;8.32;2.47;;;22.50;99.90;;;;;;5018583;28;20039;-79
2022/08/20 09:03:00;;;;;;;5.82;2.42;;;22.50;99.90;;;;;;5032547;28;20033;-79
2022/08/20 09:05:38;;;;;;;6.65;2.20;;;22.60;99.90;;;;;;5022338;28;20033;-83
2022/08/20 09:08:10;;;;;;;6.65;2.28;;;22.70;99.90;;;;;;5024848;28;20044;-81
2022/08/20 09:10:37;;;;;;;6.03;2.53;;;22.80;99.90;;;;;;5035793;28;20028;-82
2022/08/20 09:13:07;;;;;;;7.13;2.80;;;22.80;99.90;;;;;;5050785;28;20047;-82
2022/08/20 09:15:34;;;;;;;6.15;2.30;;;22.90;99.90;;;;;;5021982;28;20029;-83
2022/08/20 09:18:01;;;;;;;8.57;2.70;;;22.90;99.90;;;;;;5026248;28;20037;-82
2022/08/20 09:20:27;;;;;;;5.13;2.42;;;22.70;99.90;;;;;;5019610;28;20025;-84
2022/08/20 09:22:54;;;;;;;6.68;2.00;;;22.70;99.90;;;;;;5023983;28;20032;-83
2022/08/20 09:25:21;;;;;;;9.25;2.55;;;22.60;99.90;;;;;;5021846;28;20075;-84
2022/08/20 09:27:46;;;;;;;10.65;2.80;;;22.50;99.90;;;;;;5027429;28;20032;-82
2022/08/20 09:30:13;;;;;;;7.43;2.10;;;22.50;99.90;;;;;;5026245;28;20033;-85
2022/08/20 09:32:40;;;;;;;8.77;2.58;;;22.50;99.90;;;;;;5041635;28;20033;-82
2022/08/20 09:35:06;;;;;;;5.43;2.10;;;22.60;99.90;;;;;;5022626;28;20052;-81
2022/08/20 09:37:32;;;;;;;9.13;2.20;;;22.70;99.90;;;;;;5056616;28;20020;-79
2022/08/20 09:39:58;;;;;;;10.25;2.75;;;22.70;99.90;;;;;;5035121;28;20035;-78
2022/08/20 09:42:31;;;;;;;6.65;2.83;;;22.80;99.90;;;;;;5029037;28;20451;-78
2022/08/20 09:44:57;;;;;;;11.63;2.88;;;22.90;99.90;;;;;;5051643;28;20033;-81
2022/08/20 09:47:24;;;;;;;5.05;2.22;;;23.00;99.90;;;;;;5012897;28;21076;-79
2022/08/20 09:49:51;;;;;;;7.18;2.30;;;23.10;99.90;;;;;;5044053;28;20676;-77
2022/08/20 09:52:27;;;;;;;10.13;2.55;;;23.20;99.90;;;;;;5015020;28;20021;-77
2022/08/20 09:55:03;;;;;;;6.43;2.33;;;23.10;99.90;;;;;;5046946;28;20497;-78
2022/08/20 09:57:30;;;;;;;9.23;2.30;;;23.20;99.90;;;;;;5027631;28;20047;-75
2022/08/20 10:00:00;;;;;;;6.35;2.10;;;23.20;99.90;;;;;;5030322;28;20528;-76
2022/08/20 10:02:26;;;;;;;8.40;2.23;;;23.50;99.90;;;;;;5029857;28;21698;-76
2022/08/20 10:04:52;;;;;;;9.00;2.33;;;23.50;99.90;;;;;;5030303;28;20037;-77
2022/08/20 10:07:18;;;;;;;8.75;2.40;;;23.60;99.90;;;;;;5021257;28;20035;-77
2022/08/20 10:09:44;;;;;;;7.53;2.28;;;23.50;99.90;;;;;;5034841;28;20029;-76
2022/08/20 10:12:09;;;;;;;7.95;2.75;;;23.60;99.90;;;;;;5043317;28;20556;-76
2022/08/20 10:14:35;;;;;;;9.15;2.00;;;23.50;99.90;;;;;;5030486;28;20041;-76
2022/08/20 10:17:02;;;;;;;5.95;2.40;;;23.70;99.90;;;;;;5034444;28;20035;-76
2022/08/20 10:19:30;;;;;;;6.88;2.45;;;23.80;99.90;;;;;;5025743;28;20033;-77
2022/08/20 10:21:57;;;;;;;9.18;3.00;;;23.90;99.90;;;;;;5052069;28;20037;-77
2022/08/20 10:24:23;;;;;;;6.65;1.80;;;24.00;99.90;;;;;;5029186;28;20590;-77
2022/08/20 10:26:48;;;;;;;6.90;2.28;;;24.10;99.90;;;;;;5031480;28;20064;-80
2022/08/20 10:29:15;;;;;;;8.98;2.33;;;24.20;99.90;;;;;;5032768;28;20051;-78
2022/08/20 10:31:41;;;;;;;10.27;2.40;;;24.20;99.90;;;;;;5032554;28;20024;-79
2022/08/20 10:34:06;;;;;;;40.38;15.65;;;24.20;99.90;;;;;;5052498;28;20017;-78
2022/08/20 10:36:32;;;;;;;30.52;12.27;;;24.20;99.90;;;;;;5041191;28;20083;-78
2022/08/20 10:38:58;;;;;;;24.63;10.07;;;24.30;99.90;;;;;;5054196;28;20109;-79
2022/08/20 10:41:24;;;;;;;18.20;9.13;;;24.40;99.90;;;;;;5035531;28;20602;-77
2022/08/20 10:43:50;;;;;;;17.50;9.85;;;24.30;99.90;;;;;;5026640;28;20163;-76
2022/08/20 10:46:16;;;;;;;8.15;2.70;;;24.50;99.90;;;;;;5011510;28;20032;-77
2022/08/20 10:48:43;;;;;;;8.88;3.72;;;24.60;98.10;;;;;;5025225;28;20036;-77
2022/08/20 10:51:09;;;;;;;8.40;3.78;;;24.60;99.60;;;;;;5047754;28;20036;-78
2022/08/20 10:53:34;;;;;;;7.25;3.00;;;24.50;99.60;;;;;;5026323;28;20025;-76
2022/08/20 10:56:00;;;;;;;10.75;2.83;;;24.40;99.90;;;;;;5047701;28;20029;-77
2022/08/20 10:58:27;;;;;;;9.88;2.95;;;24.20;99.90;;;;;;5040527;28;20067;-77
2022/08/20 11:00:52;;;;;;;8.82;2.70;;;24.00;99.90;;;;;;5023224;28;20433;-78
2022/08/20 11:03:19;;;;;;;9.48;3.00;;;24.10;99.90;;;;;;5018279;28;20075;-78
2022/08/20 11:05:45;;;;;;;8.77;2.80;;;24.10;99.90;;;;;;5054445;28;20079;-78
2022/08/20 11:08:11;;;;;;;10.63;2.90;;;24.10;99.90;;;;;;5021469;28;20021;-78
2022/08/20 11:10:37;;;;;;;5.15;2.13;;;24.10;99.90;;;;;;5052893;28;20088;-77
2022/08/20 11:13:05;;;;;;;8.88;2.10;;;24.10;99.20;;;;;;5048433;28;20404;-77
2022/08/20 11:15:37;;;;;;;8.13;2.90;;;24.10;99.00;;;;;;5030196;28;20388;-77
2022/08/20 11:18:03;;;;;;;5.97;2.20;;;24.30;98.90;;;;;;5011945;28;20045;-77
2022/08/20 11:20:30;;;;;;;5.65;1.95;;;24.60;98.60;;;;;;5041882;28;20025;-76
2022/08/20 11:22:57;;;;;;;10.00;2.83;;;24.70;98.10;;;;;;5028617;28;20036;-74
2022/08/20 11:25:23;;;;;;;6.10;2.00;;;24.50;98.10;;;;;;5045201;28;20044;-71
2022/08/20 11:27:53;;;;;;;6.90;2.40;;;24.30;98.30;;;;;;5037092;28;20025;-73
2022/08/20 11:30:24;;;;;;;9.13;2.37;;;24.50;98.20;;;;;;5022400;28;20064;-77
2022/08/20 11:32:50;;;;;;;10.07;2.42;;;24.80;97.50;;;;;;5023511;28;20027;-73
2022/08/20 11:35:17;;;;;;;6.20;2.63;;;25.40;97.30;;;;;;5030071;28;20025;-75
2022/08/20 11:37:43;;;;;;;7.63;2.40;;;26.40;95.90;;;;;;5048328;28;20049;-77
2022/08/20 11:40:10;;;;;;;7.28;1.88;;;27.00;94.70;;;;;;5031381;28;20059;-77
2022/08/20 11:42:36;;;;;;;5.80;1.85;;;27.10;93.30;;;;;;5028937;28;20522;-77
2022/08/20 11:45:03;;;;;;;9.13;2.25;;;26.80;93.10;;;;;;5030622;28;20048;-78
2022/08/20 11:47:30;;;;;;;5.38;1.80;;;26.90;93.30;;;;;;5034421;28;20029;-77
2022/08/20 11:50:03;;;;;;;6.15;1.98;;;27.10;92.20;;;;;;5015535;28;20025;-76
2022/08/20 11:52:30;;;;;;;8.10;2.13;;;27.00;91.20;;;;;;5028081;28;20028;-77
2022/08/20 11:54:56;;;;;;;9.65;2.55;;;26.40;91.90;;;;;;5050750;28;20460;-77
2022/08/20 11:57:25;;;;;;;9.00;2.45;;;26.20;91.20;;;;;;5026274;28;20025;-76
2022/08/20 11:59:53;;;;;;;7.97;1.90;;;26.20;91.50;;;;;;5013504;28;20679;-77
2022/08/20 12:02:19;;;;;;;8.98;1.80;;;26.10;91.80;;;;;;5030066;28;20021;-78
2022/08/20 12:04:45;;;;;;;8.48;2.05;;;26.40;91.20;;;;;;5032882;28;20033;-78
2022/08/20 12:07:14;;;;;;;6.65;1.48;;;26.50;90.60;;;;;;5048659;28;20029;-78
2022/08/20 12:09:43;;;;;;;7.90;2.40;;;26.70;89.20;;;;;;5035984;28;20056;-78
2022/08/20 12:12:09;;;;;;;9.13;1.88;;;26.70;87.10;;;;;;5032978;28;20029;-78
2022/08/20 12:14:35;;;;;;;5.28;2.00;;;26.80;86.40;;;;;;5032463;28;20032;-78
2022/08/20 12:17:20;;;;;;;10.32;2.22;;;26.90;86.90;;;;;;5054173;28;20028;-78
2022/08/20 12:19:46;;;;;;;7.32;2.20;;;27.60;85.30;;;;;;5048787;28;20049;-77
2022/08/20 12:22:12;;;;;;;6.85;1.95;;;28.00;83.70;;;;;;5026909;28;20036;-78
2022/08/20 12:24:39;;;;;;;5.50;1.52;;;28.30;81.20;;;;;;5032002;28;20623;-77
2022/08/20 12:27:12;;;;;;;6.97;1.70;;;28.30;79.80;;;;;;5031126;28;20384;-78
2022/08/20 12:29:41;;;;;;;5.05;1.50;;;28.40;80.00;;;;;;5051609;28;21054;-78
2022/08/20 12:32:08;;;;;;;6.28;1.80;;;28.20;78.70;;;;;;5035255;28;20047;-78
2022/08/20 12:34:35;;;;;;;5.80;1.70;;;28.40;76.50;;;;;;5045240;28;20021;-78
2022/08/20 12:37:04;;;;;;;5.03;1.55;;;28.50;76.10;;;;;;5046921;28;20029;-81
2022/08/20 12:39:32;;;;;;;5.05;1.58;;;28.40;76.80;;;;;;5045110;28;20226;-79
2022/08/20 12:41:59;;;;;;;6.55;1.20;;;28.60;75.50;;;;;;5030192;28;20182;-81
2022/08/20 12:44:25;;;;;;;6.32;1.58;;;28.60;74.40;;;;;;5042682;28;20435;-78
2022/08/20 12:46:51;;;;;;;4.45;1.65;;;28.60;72.20;;;;;;5061608;28;20033;-80
2022/08/20 12:49:17;;;;;;;5.43;1.33;;;28.90;72.00;;;;;;5029205;28;20056;-78
2022/08/20 12:51:42;;;;;;;5.68;1.52;;;29.30;70.20;;;;;;5042524;28;20024;-78
2022/08/20 12:54:08;;;;;;;5.10;1.95;;;29.90;69.50;;;;;;5038973;28;20530;-77
2022/08/20 12:56:34;;;;;;;6.57;1.25;;;29.90;67.80;;;;;;5063336;28;20035;-80
2022/08/20 12:58:59;;;;;;;5.57;1.92;;;29.70;66.50;;;;;;5032829;28;20044;-78